Aviation Digital Data Service (ADDS)

Output produced by METARs form (0033 UTC 28 March 2017)
found at http://aviationweather.gov/adds/metars/
 
KINT 272330Z 2800/2824 22006KT P6SM SCT050 BKN250 
     TEMPO 2800/2801 3SM -SHRA BKN030 
     FM280900 22006KT P6SM BKN020 
     TEMPO 2809/2813 3SM -SHRA BKN010 OVC020 
     FM281600 26011KT P6SM SCT025 BKN035